createdAt,value
2017-12-16T00:00:44.184Z,0
2017-12-16T00:01:44.842Z,0
2017-12-16T00:02:45.501Z,0
2017-12-16T00:03:46.166Z,0
2017-12-16T00:04:46.819Z,0
2017-12-16T00:05:47.477Z,0
2017-12-16T00:06:48.138Z,0
2017-12-16T00:07:48.798Z,0
2017-12-16T00:08:49.455Z,0
2017-12-16T00:09:50.113Z,0
2017-12-16T00:10:50.789Z,0
2017-12-16T00:11:51.430Z,0
2017-12-16T00:12:52.090Z,0
2017-12-16T00:13:52.750Z,0
2017-12-16T00:14:53.445Z,0
2017-12-16T00:15:54.102Z,0
2017-12-16T00:16:54.759Z,0
2017-12-16T00:17:55.452Z,0
2017-12-16T00:18:56.108Z,0
2017-12-16T00:19:56.765Z,0
2017-12-16T00:20:57.423Z,0
2017-12-16T00:21:58.081Z,0
2017-12-16T00:22:58.740Z,0
2017-12-16T00:23:59.399Z,0
2017-12-16T00:25:00.056Z,0
2017-12-16T00:26:00.713Z,0
2017-12-16T00:27:01.370Z,0
2017-12-16T00:28:02.026Z,0
2017-12-16T00:29:02.683Z,0
2017-12-16T00:30:03.340Z,0
2017-12-16T00:31:03.996Z,0
2017-12-16T00:32:04.654Z,0
2017-12-16T00:33:05.312Z,0
2017-12-16T00:34:05.967Z,0
2017-12-16T00:35:06.628Z,0
2017-12-16T00:36:07.285Z,0
2017-12-16T00:37:07.945Z,0
2017-12-16T00:38:08.604Z,0
2017-12-16T00:39:09.262Z,0
2017-12-16T00:40:09.921Z,0
2017-12-16T00:41:10.582Z,0
2017-12-16T00:42:11.241Z,0
2017-12-16T00:43:11.897Z,0
2017-12-16T00:44:12.556Z,0
2017-12-16T00:45:13.214Z,0
2017-12-16T00:46:13.873Z,0
2017-12-16T00:47:14.532Z,0
2017-12-16T00:48:15.191Z,0
2017-12-16T00:49:15.850Z,0
2017-12-16T00:50:16.506Z,0
2017-12-16T00:51:17.164Z,0
2017-12-16T00:52:17.824Z,0
2017-12-16T00:53:18.483Z,0
2017-12-16T00:54:19.141Z,0
2017-12-16T00:55:19.800Z,0
2017-12-16T00:56:20.460Z,0
2017-12-16T00:57:21.124Z,0
2017-12-16T00:58:21.776Z,0
2017-12-16T00:59:22.434Z,0
2017-12-16T01:00:23.093Z,0
2017-12-16T01:01:23.752Z,0
2017-12-16T01:02:24.410Z,0
2017-12-16T01:03:25.067Z,0
2017-12-16T01:04:25.727Z,0
2017-12-16T01:05:26.388Z,0
2017-12-16T01:06:27.044Z,0
2017-12-16T01:07:27.703Z,0
2017-12-16T01:08:28.359Z,0
2017-12-16T01:09:29.018Z,0
2017-12-16T01:10:29.675Z,0
2017-12-16T01:11:30.385Z,0
2017-12-16T01:12:31.042Z,0
2017-12-16T01:13:31.699Z,0
2017-12-16T01:14:32.357Z,0
2017-12-16T01:15:33.051Z,0
2017-12-16T01:16:33.709Z,0
2017-12-16T01:17:34.367Z,0
2017-12-16T01:18:35.026Z,0
2017-12-16T01:19:35.682Z,0
2017-12-16T01:20:36.343Z,0
2017-12-16T01:21:37.003Z,0
2017-12-16T01:22:37.660Z,0
2017-12-16T01:23:38.319Z,0
2017-12-16T01:24:38.980Z,0
2017-12-16T01:25:39.635Z,0
2017-12-16T01:26:40.296Z,0
2017-12-16T01:27:40.952Z,0
2017-12-16T01:28:41.610Z,0
2017-12-16T01:29:42.269Z,0
2017-12-16T01:30:42.929Z,0
2017-12-16T01:31:43.586Z,0
2017-12-16T01:32:44.245Z,0
2017-12-16T01:33:44.903Z,0
2017-12-16T01:34:45.561Z,0
2017-12-16T01:35:46.218Z,0
2017-12-16T01:36:46.877Z,0
2017-12-16T01:37:47.533Z,0
2017-12-16T01:38:48.193Z,0
2017-12-16T01:39:48.851Z,0
2017-12-16T01:40:49.509Z,0
2017-12-16T01:41:50.167Z,0
2017-12-16T01:42:50.826Z,0
2017-12-16T01:43:51.484Z,0
2017-12-16T01:44:52.142Z,0
2017-12-16T01:45:52.802Z,0
2017-12-16T01:46:53.495Z,0
2017-12-16T01:47:54.152Z,0
2017-12-16T01:48:54.807Z,0
2017-12-16T01:49:55.463Z,0
2017-12-16T01:50:56.119Z,0
2017-12-16T01:51:56.774Z,0
2017-12-16T01:52:57.432Z,0
2017-12-16T01:53:58.091Z,0
2017-12-16T01:54:58.748Z,0
2017-12-16T01:55:59.405Z,0
2017-12-16T01:57:00.064Z,0
2017-12-16T01:58:00.722Z,0
2017-12-16T01:59:01.379Z,0
2017-12-16T02:00:02.038Z,0
2017-12-16T02:01:02.695Z,0
2017-12-16T02:02:03.353Z,0
2017-12-16T02:03:04.010Z,0
2017-12-16T02:04:04.666Z,0
2017-12-16T02:05:05.324Z,0
2017-12-16T02:06:05.983Z,0
2017-12-16T02:07:06.641Z,0
2017-12-16T02:08:07.299Z,0
2017-12-16T02:09:07.990Z,0
2017-12-16T02:10:08.648Z,0
2017-12-16T02:11:09.303Z,0
2017-12-16T02:12:09.961Z,0
2017-12-16T02:13:10.619Z,0
2017-12-16T02:14:11.278Z,0
2017-12-16T02:15:11.935Z,0
2017-12-16T02:16:12.595Z,0
2017-12-16T02:17:13.253Z,0
2017-12-16T02:18:13.911Z,0
2017-12-16T02:19:14.569Z,0
2017-12-16T02:20:15.228Z,0
2017-12-16T02:21:15.885Z,0
2017-12-16T02:22:16.544Z,0
2017-12-16T02:23:17.201Z,0
2017-12-16T02:24:17.859Z,0
2017-12-16T02:25:18.518Z,0
2017-12-16T02:26:19.175Z,0
2017-12-16T02:27:19.835Z,0
2017-12-16T02:28:20.492Z,0
2017-12-16T02:29:21.150Z,0
2017-12-16T02:30:21.809Z,0
2017-12-16T02:31:22.470Z,0
2017-12-16T02:32:23.125Z,0
2017-12-16T02:33:23.786Z,0
2017-12-16T02:34:24.440Z,0
2017-12-16T02:35:25.098Z,0
2017-12-16T02:36:25.757Z,0
2017-12-16T02:37:26.415Z,0
2017-12-16T02:38:27.073Z,0
2017-12-16T02:39:27.730Z,0
2017-12-16T02:40:28.389Z,0
2017-12-16T02:41:29.046Z,0
2017-12-16T02:42:29.804Z,0
2017-12-16T02:43:30.461Z,0
2017-12-16T02:44:31.119Z,0
2017-12-16T02:45:31.778Z,0
2017-12-16T02:46:32.437Z,0
2017-12-16T02:47:33.095Z,0
2017-12-16T02:48:33.753Z,0
2017-12-16T02:49:34.409Z,0
2017-12-16T02:50:35.068Z,0
2017-12-16T02:51:35.725Z,0
2017-12-16T02:52:36.382Z,0
2017-12-16T02:53:37.040Z,0
2017-12-16T02:54:37.698Z,0
2017-12-16T02:55:38.392Z,0
2017-12-16T02:56:39.051Z,0
2017-12-16T02:57:39.708Z,0
2017-12-16T02:58:40.365Z,0
2017-12-16T02:59:41.023Z,0
2017-12-16T03:00:41.680Z,0
2017-12-16T03:01:42.340Z,0
2017-12-16T03:02:42.998Z,0
2017-12-16T03:03:43.655Z,0
2017-12-16T03:04:44.313Z,0
2017-12-16T03:05:44.970Z,0
2017-12-16T03:06:45.628Z,0
2017-12-16T03:07:46.284Z,0
2017-12-16T03:08:46.942Z,0
2017-12-16T03:09:47.599Z,0
2017-12-16T03:10:48.257Z,0
2017-12-16T03:11:48.913Z,0
2017-12-16T03:12:49.571Z,0
2017-12-16T03:13:50.228Z,0
2017-12-16T03:14:50.885Z,0
2017-12-16T03:15:51.544Z,0
2017-12-16T03:16:52.200Z,0
2017-12-16T03:17:52.858Z,0
2017-12-16T03:18:53.515Z,0
2017-12-16T03:19:54.172Z,0
2017-12-16T03:20:54.829Z,0
2017-12-16T03:21:55.487Z,0
2017-12-16T03:22:56.180Z,0
2017-12-16T03:23:56.837Z,0
2017-12-16T03:24:57.494Z,0
2017-12-16T03:25:58.150Z,0
2017-12-16T03:26:58.809Z,0
2017-12-16T03:27:59.465Z,0
2017-12-16T03:29:00.123Z,0
2017-12-16T03:30:00.780Z,0
2017-12-16T03:31:01.441Z,0
2017-12-16T03:32:02.096Z,0
2017-12-16T03:33:02.754Z,0
2017-12-16T03:34:03.410Z,0
2017-12-16T03:35:04.067Z,0
2017-12-16T03:36:04.725Z,0
2017-12-16T03:37:05.383Z,0
2017-12-16T03:38:06.040Z,0
2017-12-16T03:39:06.698Z,0
2017-12-16T03:40:07.354Z,0
2017-12-16T03:41:08.012Z,0
2017-12-16T03:42:08.670Z,0
2017-12-16T03:43:09.326Z,0
2017-12-16T03:44:09.984Z,0
2017-12-16T03:45:10.643Z,0
2017-12-16T03:46:11.301Z,0
2017-12-16T03:47:11.957Z,0
2017-12-16T03:48:12.613Z,0
2017-12-16T03:49:13.270Z,0
2017-12-16T03:50:13.934Z,0
2017-12-16T03:51:14.584Z,0
2017-12-16T03:52:15.240Z,0
2017-12-16T03:53:15.898Z,0
2017-12-16T03:54:16.557Z,0
2017-12-16T03:55:17.216Z,0
2017-12-16T03:56:17.873Z,0
2017-12-16T03:57:18.535Z,0
2017-12-16T03:58:19.225Z,0
2017-12-16T03:59:19.884Z,0
2017-12-16T04:00:20.542Z,0
2017-12-16T04:01:21.199Z,0
2017-12-16T04:02:21.857Z,0
2017-12-16T04:03:22.515Z,0
2017-12-16T04:04:23.172Z,0
2017-12-16T04:05:23.830Z,0
2017-12-16T04:06:24.488Z,0
2017-12-16T04:07:25.145Z,0
2017-12-16T04:08:25.802Z,0
2017-12-16T04:09:26.459Z,0
2017-12-16T04:10:27.117Z,0
2017-12-16T04:11:27.777Z,0
2017-12-16T04:12:28.432Z,0
2017-12-16T04:13:29.090Z,0
2017-12-16T04:14:29.747Z,0
2017-12-16T04:15:30.403Z,0
2017-12-16T04:16:31.097Z,0
2017-12-16T04:17:31.755Z,0
2017-12-16T04:18:32.412Z,0
2017-12-16T04:19:33.070Z,0
2017-12-16T04:20:33.727Z,0
2017-12-16T04:21:34.386Z,0
2017-12-16T04:22:35.048Z,0
2017-12-16T04:23:35.701Z,0
2017-12-16T04:24:36.358Z,0
2017-12-16T04:25:37.014Z,0
2017-12-16T04:26:37.673Z,0
2017-12-16T04:27:38.330Z,0
2017-12-16T04:28:38.987Z,0
2017-12-16T04:29:39.644Z,0
2017-12-16T04:30:40.302Z,0
2017-12-16T04:31:40.959Z,0
2017-12-16T04:32:41.618Z,0
2017-12-16T04:33:42.310Z,0
2017-12-16T04:34:42.968Z,0
2017-12-16T04:35:43.627Z,0
2017-12-16T04:36:44.284Z,0
2017-12-16T04:37:44.942Z,0
2017-12-16T04:38:45.600Z,0
2017-12-16T04:39:46.257Z,0
2017-12-16T04:40:46.916Z,0
2017-12-16T04:41:47.572Z,0
2017-12-16T04:42:48.231Z,0
2017-12-16T04:43:48.890Z,0
2017-12-16T04:44:49.547Z,0
2017-12-16T04:45:50.202Z,0
2017-12-16T04:46:50.860Z,0
2017-12-16T04:47:51.553Z,0
2017-12-16T04:48:52.245Z,0
2017-12-16T04:49:52.902Z,0
2017-12-16T04:50:53.558Z,0
2017-12-16T04:51:54.213Z,0
2017-12-16T04:52:54.871Z,0
2017-12-16T04:53:55.531Z,0
2017-12-16T04:54:56.221Z,0
2017-12-16T04:55:56.878Z,0
2017-12-16T04:56:57.534Z,0
2017-12-16T04:57:58.227Z,0
2017-12-16T04:58:58.885Z,0
2017-12-16T04:59:59.541Z,0
2017-12-16T05:01:00.285Z,0
2017-12-16T05:02:00.922Z,0
2017-12-16T05:03:01.581Z,0
2017-12-16T05:04:02.240Z,0
2017-12-16T05:05:02.899Z,0
2017-12-16T05:06:03.558Z,0
2017-12-16T05:07:04.217Z,0
2017-12-16T05:08:04.874Z,0
2017-12-16T05:09:05.539Z,0
2017-12-16T05:10:06.192Z,0
2017-12-16T05:11:06.848Z,0
2017-12-16T05:12:07.504Z,0
2017-12-16T05:13:08.162Z,0
2017-12-16T05:14:08.819Z,0
2017-12-16T05:15:09.476Z,0
2017-12-16T05:16:10.134Z,0
2017-12-16T05:17:10.791Z,0
2017-12-16T05:18:11.448Z,0
2017-12-16T05:19:12.109Z,0
2017-12-16T05:20:12.763Z,0
2017-12-16T05:21:13.420Z,0
2017-12-16T05:22:14.116Z,0
2017-12-16T05:23:14.776Z,0
2017-12-16T05:24:15.435Z,0
2017-12-16T05:25:16.092Z,0
2017-12-16T05:26:16.755Z,0
2017-12-16T05:27:17.410Z,0
2017-12-16T05:28:18.068Z,0
2017-12-16T05:29:18.763Z,0
2017-12-16T05:30:19.422Z,0
2017-12-16T05:31:20.081Z,0
2017-12-16T05:32:20.792Z,0
2017-12-16T05:33:21.396Z,0
2017-12-16T05:34:22.055Z,0
2017-12-16T05:35:22.713Z,0
2017-12-16T05:36:23.369Z,0
2017-12-16T05:37:24.063Z,0
2017-12-16T05:38:24.720Z,0
2017-12-16T05:39:25.378Z,0
2017-12-16T05:40:26.035Z,0
2017-12-16T05:41:26.695Z,0
2017-12-16T05:42:27.353Z,0
2017-12-16T05:43:28.010Z,0
2017-12-16T05:44:28.667Z,0
2017-12-16T05:45:29.323Z,0
2017-12-16T05:46:29.982Z,0
2017-12-16T05:47:30.641Z,0
2017-12-16T05:48:31.301Z,0
2017-12-16T05:49:31.958Z,0
2017-12-16T05:50:32.617Z,0
2017-12-16T05:51:33.338Z,0
2017-12-16T05:52:33.934Z,0
2017-12-16T05:53:34.600Z,0
2017-12-16T05:54:35.249Z,0
2017-12-16T05:55:35.907Z,0
2017-12-16T05:56:36.565Z,0
2017-12-16T05:57:37.222Z,0
2017-12-16T05:58:37.879Z,0
2017-12-16T05:59:38.537Z,0
2017-12-16T06:00:39.195Z,0
2017-12-16T06:01:39.853Z,0
2017-12-16T06:02:40.510Z,0
2017-12-16T06:03:41.165Z,0
2017-12-16T06:04:41.827Z,0
2017-12-16T06:05:42.482Z,0
2017-12-16T06:06:43.178Z,0
2017-12-16T06:07:43.837Z,0
2017-12-16T06:08:44.494Z,0
2017-12-16T06:09:45.151Z,0
2017-12-16T06:10:45.810Z,0
2017-12-16T06:11:46.474Z,0
2017-12-16T06:12:47.126Z,0
2017-12-16T06:13:47.784Z,0
2017-12-16T06:14:48.440Z,0
2017-12-16T06:15:49.095Z,0
2017-12-16T06:16:49.753Z,0
2017-12-16T06:17:50.410Z,0
2017-12-16T06:18:51.067Z,0
2017-12-16T06:19:51.726Z,0
2017-12-16T06:20:52.383Z,0
2017-12-16T06:21:53.040Z,0
2017-12-16T06:22:53.697Z,0
2017-12-16T06:23:54.355Z,0
2017-12-16T06:24:55.013Z,0
2017-12-16T06:25:55.671Z,0
2017-12-16T06:26:56.327Z,0
2017-12-16T06:27:56.986Z,0
2017-12-16T06:28:57.679Z,0
2017-12-16T06:29:58.370Z,0
2017-12-16T06:30:59.024Z,0
2017-12-16T06:31:59.680Z,0
2017-12-16T06:33:00.343Z,0
2017-12-16T06:34:01.031Z,0
2017-12-16T06:35:01.687Z,0
2017-12-16T06:36:02.347Z,0
2017-12-16T06:37:03.001Z,0
2017-12-16T06:38:03.656Z,0
2017-12-16T06:39:04.312Z,0
2017-12-16T06:40:04.968Z,0
2017-12-16T06:41:05.661Z,0
2017-12-16T06:42:06.318Z,0
2017-12-16T06:43:06.976Z,0
2017-12-16T06:44:07.633Z,0
2017-12-16T06:45:08.289Z,0
2017-12-16T06:46:08.983Z,0
2017-12-16T06:47:09.638Z,0
2017-12-16T06:48:10.294Z,0
2017-12-16T06:49:10.954Z,0
2017-12-16T06:50:11.643Z,0
2017-12-16T06:51:12.337Z,0
2017-12-16T06:52:12.994Z,0
2017-12-16T06:53:13.686Z,0
2017-12-16T06:54:14.342Z,0
2017-12-16T06:55:15.001Z,0
2017-12-16T06:56:15.657Z,0
2017-12-16T06:57:16.316Z,0
2017-12-16T06:58:17.011Z,0
2017-12-16T06:59:17.670Z,0
2017-12-16T07:00:18.328Z,0
2017-12-16T07:01:18.986Z,0
2017-12-16T07:02:19.643Z,0
2017-12-16T07:03:20.302Z,0
2017-12-16T07:04:20.957Z,0
2017-12-16T07:05:21.616Z,0
2017-12-16T07:06:22.273Z,0
2017-12-16T07:07:22.932Z,0
2017-12-16T07:08:23.595Z,0
2017-12-16T07:09:24.247Z,0
2017-12-16T07:10:24.907Z,0
2017-12-16T07:11:25.564Z,0
2017-12-16T07:12:26.220Z,0
2017-12-16T07:13:26.878Z,0
2017-12-16T07:14:27.536Z,0
2017-12-16T07:15:28.193Z,0
2017-12-16T07:16:28.850Z,0
2017-12-16T07:17:29.507Z,0
2017-12-16T07:18:30.164Z,0
2017-12-16T07:19:30.825Z,0
2017-12-16T07:20:31.519Z,0
2017-12-16T07:21:32.178Z,0
2017-12-16T07:22:32.837Z,0
2017-12-16T07:23:33.495Z,0
2017-12-16T07:24:34.155Z,0
2017-12-16T07:25:34.812Z,0
2017-12-16T07:26:35.469Z,0
2017-12-16T07:27:36.128Z,0
2017-12-16T07:28:36.783Z,0
2017-12-16T07:29:37.441Z,0
2017-12-16T07:30:38.098Z,0
2017-12-16T07:31:38.756Z,0
2017-12-16T07:32:39.413Z,0
2017-12-16T07:33:40.072Z,0
2017-12-16T07:34:40.730Z,0
2017-12-16T07:35:41.387Z,0
2017-12-16T07:36:42.045Z,0
2017-12-16T07:37:42.702Z,0
2017-12-16T07:38:43.398Z,0
2017-12-16T07:39:44.064Z,0
2017-12-16T07:40:44.723Z,0
2017-12-16T07:41:45.376Z,0
2017-12-16T07:42:46.033Z,5
2017-12-16T07:43:46.691Z,5
2017-12-16T07:44:47.351Z,5
2017-12-16T07:45:48.009Z,5
2017-12-16T07:46:48.668Z,5
2017-12-16T07:47:49.327Z,5
2017-12-16T07:48:49.993Z,5
2017-12-16T07:49:50.647Z,5
2017-12-16T07:50:51.305Z,5
2017-12-16T07:51:51.966Z,5
2017-12-16T07:52:52.626Z,5
2017-12-16T07:53:53.288Z,5
2017-12-16T07:54:53.982Z,5
2017-12-16T07:55:54.678Z,11
2017-12-16T07:56:55.340Z,11
2017-12-16T07:57:56.001Z,11
2017-12-16T07:58:56.661Z,11
2017-12-16T07:59:57.356Z,11
2017-12-16T08:00:58.015Z,11
2017-12-16T08:01:58.674Z,11
2017-12-16T08:02:59.334Z,11
2017-12-16T08:03:59.993Z,11
2017-12-16T08:05:00.652Z,11
2017-12-16T08:06:01.311Z,11
2017-12-16T08:07:01.969Z,16
2017-12-16T08:08:02.629Z,16
2017-12-16T08:09:03.287Z,16
2017-12-16T08:10:03.946Z,22
2017-12-16T08:11:04.606Z,22
2017-12-16T08:12:05.267Z,28
2017-12-16T08:13:05.928Z,28
2017-12-16T08:14:06.590Z,28
2017-12-16T08:15:07.251Z,28
2017-12-16T08:16:07.910Z,28
2017-12-16T08:17:08.569Z,33
2017-12-16T08:18:09.230Z,33
2017-12-16T08:19:09.892Z,33
2017-12-16T08:20:10.554Z,33
2017-12-16T08:21:11.218Z,33
2017-12-16T08:22:11.874Z,28
2017-12-16T08:23:12.533Z,28
2017-12-16T08:24:13.192Z,28
2017-12-16T08:25:13.850Z,28
2017-12-16T08:26:14.510Z,28
2017-12-16T08:27:15.169Z,28
2017-12-16T08:28:15.828Z,22
2017-12-16T08:29:16.487Z,22
2017-12-16T08:30:17.148Z,28
2017-12-16T08:31:17.809Z,28
2017-12-16T08:32:18.470Z,28
2017-12-16T08:33:19.130Z,28
2017-12-16T08:34:19.790Z,28
2017-12-16T08:35:20.451Z,33
2017-12-16T08:36:21.111Z,33
2017-12-16T08:37:21.770Z,39
2017-12-16T08:38:22.433Z,39
2017-12-16T08:39:23.095Z,33
2017-12-16T08:40:23.756Z,33
2017-12-16T08:41:24.417Z,39
2017-12-16T08:42:25.079Z,39
2017-12-16T08:43:25.740Z,39
2017-12-16T08:44:26.401Z,39
2017-12-16T08:45:27.063Z,39
2017-12-16T08:46:27.730Z,45
2017-12-16T08:47:28.389Z,45
2017-12-16T08:48:29.051Z,50
2017-12-16T08:49:29.752Z,50
2017-12-16T08:50:30.409Z,50
2017-12-16T08:51:31.070Z,56
2017-12-16T08:52:31.731Z,56
2017-12-16T08:53:32.393Z,56
2017-12-16T08:54:33.056Z,61
2017-12-16T08:55:33.716Z,61
2017-12-16T08:56:34.377Z,61
2017-12-16T08:57:35.038Z,67
2017-12-16T08:58:35.699Z,67
2017-12-16T08:59:36.362Z,67
2017-12-16T09:00:37.023Z,67
2017-12-16T09:01:37.687Z,67
2017-12-16T09:02:38.348Z,67
2017-12-16T09:03:39.009Z,61
2017-12-16T09:04:39.669Z,61
2017-12-16T09:05:40.330Z,56
2017-12-16T09:06:40.992Z,61
2017-12-16T09:07:41.655Z,61
2017-12-16T09:08:42.318Z,56
2017-12-16T09:09:42.978Z,56
2017-12-16T09:10:43.638Z,56
2017-12-16T09:11:44.299Z,56
2017-12-16T09:12:44.959Z,56
2017-12-16T09:13:45.624Z,56
2017-12-16T09:14:46.322Z,56
2017-12-16T09:15:46.987Z,56
2017-12-16T09:16:47.649Z,56
2017-12-16T09:17:48.308Z,56
2017-12-16T09:18:48.969Z,56
2017-12-16T09:19:49.630Z,56
2017-12-16T09:20:50.291Z,61
2017-12-16T09:21:50.954Z,61
2017-12-16T09:22:51.617Z,67
2017-12-16T09:23:52.279Z,73
2017-12-16T09:24:52.940Z,73
2017-12-16T09:25:53.642Z,84
2017-12-16T09:26:54.304Z,90
2017-12-16T09:27:54.973Z,101
2017-12-16T09:28:55.660Z,106
2017-12-16T09:29:56.335Z,112
2017-12-16T09:30:56.998Z,112
2017-12-16T09:31:57.660Z,112
2017-12-16T09:32:58.324Z,106
2017-12-16T09:33:58.992Z,106
2017-12-16T09:34:59.686Z,106
2017-12-16T09:36:00.348Z,101
2017-12-16T09:37:01.010Z,101
2017-12-16T09:38:01.672Z,101
2017-12-16T09:39:02.336Z,95
2017-12-16T09:40:03.004Z,90
2017-12-16T09:41:03.700Z,78
2017-12-16T09:42:04.363Z,78
2017-12-16T09:43:05.025Z,78
2017-12-16T09:44:05.690Z,73
2017-12-16T09:45:06.351Z,73
2017-12-16T09:46:07.011Z,78
2017-12-16T09:47:07.724Z,78
2017-12-16T09:48:08.386Z,73
2017-12-16T09:49:09.049Z,73
2017-12-16T09:50:09.710Z,73
2017-12-16T09:51:10.410Z,73
2017-12-16T09:52:11.074Z,73
2017-12-16T09:53:11.739Z,73
2017-12-16T09:54:12.400Z,73
2017-12-16T09:55:13.064Z,73
2017-12-16T09:56:13.726Z,73
2017-12-16T09:57:14.423Z,73
2017-12-16T09:58:15.088Z,73
2017-12-16T09:59:15.749Z,73
2017-12-16T10:00:16.413Z,73
2017-12-16T10:01:17.076Z,73
2017-12-16T10:02:17.737Z,73
2017-12-16T10:03:18.399Z,73
2017-12-16T10:04:19.101Z,73
2017-12-16T10:05:19.760Z,73
2017-12-16T10:06:20.421Z,73
2017-12-16T10:07:21.083Z,73
2017-12-16T10:08:21.746Z,73
2017-12-16T10:09:22.409Z,73
2017-12-16T10:10:23.073Z,67
2017-12-16T10:11:23.736Z,61
2017-12-16T10:12:24.397Z,56
2017-12-16T10:13:25.060Z,56
2017-12-16T10:14:25.723Z,45
2017-12-16T10:15:26.386Z,33
2017-12-16T10:16:27.049Z,28
2017-12-16T10:17:27.960Z,28
2017-12-16T10:18:28.623Z,28
2017-12-16T10:19:29.285Z,28
2017-12-16T10:20:29.946Z,28
2017-12-16T10:21:30.606Z,28
2017-12-16T10:22:31.268Z,33
2017-12-16T10:23:31.931Z,39
2017-12-16T10:24:32.592Z,39
2017-12-16T10:25:33.259Z,39
2017-12-16T10:26:33.925Z,39
2017-12-16T10:27:34.583Z,39
2017-12-16T10:28:35.245Z,33
2017-12-16T10:29:35.908Z,39
2017-12-16T10:30:36.571Z,39
2017-12-16T10:31:37.234Z,39
2017-12-16T10:32:37.896Z,39
2017-12-16T10:33:38.558Z,39
2017-12-16T10:34:39.221Z,33
2017-12-16T10:35:39.911Z,33
2017-12-16T10:36:40.573Z,33
2017-12-16T10:37:41.236Z,33
2017-12-16T10:38:41.899Z,33
2017-12-16T10:39:42.561Z,28
2017-12-16T10:40:43.223Z,28
2017-12-16T10:41:43.886Z,28
2017-12-16T10:42:44.550Z,28
2017-12-16T10:43:45.210Z,28
2017-12-16T10:44:45.871Z,22
2017-12-16T10:45:46.568Z,22
2017-12-16T10:46:47.231Z,22
2017-12-16T10:47:47.890Z,22
2017-12-16T10:48:48.552Z,22
2017-12-16T10:49:49.215Z,22
2017-12-16T10:50:49.885Z,28
2017-12-16T10:51:50.609Z,28
2017-12-16T10:52:51.324Z,28
2017-12-16T10:53:52.078Z,33
2017-12-16T10:54:52.722Z,39
2017-12-16T10:55:53.376Z,50
2017-12-16T10:56:54.037Z,56
2017-12-16T10:57:54.699Z,50
2017-12-16T10:58:55.386Z,39
2017-12-16T10:59:56.062Z,39
2017-12-16T11:00:56.724Z,45
2017-12-16T11:01:57.388Z,50
2017-12-16T11:02:58.054Z,56
2017-12-16T11:03:58.712Z,56
2017-12-16T11:04:59.374Z,56
2017-12-16T11:06:00.038Z,61
2017-12-16T11:07:00.696Z,73
2017-12-16T11:08:01.359Z,90
2017-12-16T11:09:02.022Z,95
2017-12-16T11:10:02.685Z,95
2017-12-16T11:11:03.348Z,90
2017-12-16T11:12:04.008Z,95
2017-12-16T11:13:04.672Z,101
2017-12-16T11:14:05.337Z,106
2017-12-16T11:15:06.000Z,112
2017-12-16T11:16:06.664Z,106
2017-12-16T11:17:07.324Z,95
2017-12-16T11:18:07.985Z,90
2017-12-16T11:19:08.647Z,84
2017-12-16T11:20:09.311Z,73
2017-12-16T11:21:09.975Z,73
2017-12-16T11:22:10.638Z,78
2017-12-16T11:23:11.300Z,84
2017-12-16T11:24:11.962Z,90
2017-12-16T11:25:12.627Z,84
2017-12-16T11:26:13.323Z,84
2017-12-16T11:27:13.987Z,84
2017-12-16T11:28:14.702Z,78
2017-12-16T11:29:15.400Z,73
2017-12-16T11:30:16.096Z,90
2017-12-16T11:31:16.761Z,106
2017-12-16T11:32:17.428Z,112
2017-12-16T11:33:18.141Z,106
2017-12-16T11:34:18.806Z,101
2017-12-16T11:35:19.468Z,90
2017-12-16T11:36:20.130Z,90
2017-12-16T11:37:20.794Z,90
2017-12-16T11:38:21.456Z,95
2017-12-16T11:39:22.120Z,90
2017-12-16T11:40:22.783Z,78
2017-12-16T11:41:23.445Z,73
2017-12-16T11:42:24.107Z,73
2017-12-16T11:43:24.770Z,73
2017-12-16T11:44:25.471Z,78
2017-12-16T11:45:26.165Z,78
2017-12-16T11:46:26.829Z,84
2017-12-16T11:47:27.490Z,90
2017-12-16T11:48:28.152Z,90
2017-12-16T11:49:28.814Z,84
2017-12-16T11:50:29.478Z,84
2017-12-16T11:51:30.142Z,78
2017-12-16T11:52:30.805Z,78
2017-12-16T11:53:31.466Z,84
2017-12-16T11:54:32.134Z,84
2017-12-16T11:55:32.793Z,84
2017-12-16T11:56:33.456Z,84
2017-12-16T11:57:34.119Z,78
2017-12-16T11:58:34.822Z,78
2017-12-16T11:59:35.480Z,73
2017-12-16T12:00:36.141Z,73
2017-12-16T12:01:36.804Z,73
2017-12-16T12:02:37.466Z,73
2017-12-16T12:03:38.128Z,67
2017-12-16T12:04:38.790Z,61
2017-12-16T12:05:39.452Z,50
2017-12-16T12:06:40.115Z,56
2017-12-16T12:07:40.780Z,56
2017-12-16T12:08:41.447Z,56
2017-12-16T12:09:42.108Z,56
2017-12-16T12:10:42.770Z,56
2017-12-16T12:11:43.434Z,56
2017-12-16T12:12:44.097Z,56
2017-12-16T12:13:44.765Z,61
2017-12-16T12:14:45.422Z,67
2017-12-16T12:15:46.085Z,73
2017-12-16T12:16:46.749Z,78
2017-12-16T12:17:47.412Z,78
2017-12-16T12:18:48.076Z,84
2017-12-16T12:19:48.741Z,78
2017-12-16T12:20:49.404Z,73
2017-12-16T12:21:50.066Z,67
2017-12-16T12:22:50.737Z,67
2017-12-16T12:23:51.391Z,67
2017-12-16T12:24:52.058Z,73
2017-12-16T12:25:52.716Z,78
2017-12-16T12:26:53.381Z,73
2017-12-16T12:27:54.043Z,73
2017-12-16T12:28:54.703Z,67
2017-12-16T12:29:55.365Z,61
2017-12-16T12:30:56.032Z,67
2017-12-16T12:31:56.694Z,56
2017-12-16T12:32:57.356Z,50
2017-12-16T12:33:58.018Z,67
2017-12-16T12:34:58.680Z,67
2017-12-16T12:35:59.345Z,45
2017-12-16T12:37:00.007Z,39
2017-12-16T12:38:00.673Z,33
2017-12-16T12:39:01.330Z,28
2017-12-16T12:40:01.992Z,28
2017-12-16T12:41:02.677Z,28
2017-12-16T12:42:03.316Z,22
2017-12-16T12:43:03.976Z,28
2017-12-16T12:44:04.687Z,28
2017-12-16T12:45:05.351Z,28
2017-12-16T12:46:06.014Z,28
2017-12-16T12:47:06.676Z,33
2017-12-16T12:48:07.339Z,39
2017-12-16T12:49:08.001Z,39
2017-12-16T12:50:08.664Z,39
2017-12-16T12:51:09.398Z,45
2017-12-16T12:52:10.060Z,39
2017-12-16T12:53:10.722Z,39
2017-12-16T12:54:11.385Z,45
2017-12-16T12:55:12.047Z,50
2017-12-16T12:56:12.711Z,50
2017-12-16T12:57:13.379Z,45
2017-12-16T12:58:14.075Z,45
2017-12-16T12:59:14.738Z,45
2017-12-16T13:00:15.401Z,45
2017-12-16T13:01:16.062Z,39
2017-12-16T13:02:16.728Z,39
2017-12-16T13:03:17.424Z,45
2017-12-16T13:04:18.085Z,50
2017-12-16T13:05:18.750Z,61
2017-12-16T13:06:19.414Z,67
2017-12-16T13:07:20.077Z,73
2017-12-16T13:08:20.741Z,73
2017-12-16T13:09:21.402Z,78
2017-12-16T13:10:22.066Z,78
2017-12-16T13:11:22.726Z,78
2017-12-16T13:12:23.391Z,90
2017-12-16T13:13:24.052Z,95
2017-12-16T13:14:24.714Z,106
2017-12-16T13:15:25.377Z,106
2017-12-16T13:16:26.041Z,106
2017-12-16T13:17:26.702Z,95
2017-12-16T13:18:27.368Z,84
2017-12-16T13:19:28.053Z,78
2017-12-16T13:20:28.716Z,78
2017-12-16T13:21:29.380Z,67
2017-12-16T13:22:30.040Z,67
2017-12-16T13:23:30.705Z,67
2017-12-16T13:24:31.369Z,67
2017-12-16T13:25:32.030Z,67
2017-12-16T13:26:32.691Z,67
2017-12-16T13:27:33.355Z,67
2017-12-16T13:28:34.015Z,67
2017-12-16T13:29:34.678Z,67
2017-12-16T13:30:35.342Z,67
2017-12-16T13:31:36.005Z,67
2017-12-16T13:32:36.666Z,67
2017-12-16T13:33:37.329Z,61
2017-12-16T13:34:38.041Z,61
2017-12-16T13:35:38.706Z,61
2017-12-16T13:36:39.369Z,61
2017-12-16T13:37:40.032Z,56
2017-12-16T13:38:40.697Z,61
2017-12-16T13:39:41.357Z,61
2017-12-16T13:40:42.022Z,61
2017-12-16T13:41:42.685Z,61
2017-12-16T13:42:43.346Z,61
2017-12-16T13:43:44.009Z,61
2017-12-16T13:44:44.671Z,61
2017-12-16T13:45:45.334Z,61
2017-12-16T13:46:45.998Z,61
2017-12-16T13:47:46.661Z,61
2017-12-16T13:48:47.326Z,61
2017-12-16T13:49:47.990Z,61
2017-12-16T13:50:48.728Z,56
2017-12-16T13:51:49.319Z,50
2017-12-16T13:52:49.978Z,50
2017-12-16T13:53:50.641Z,45
2017-12-16T13:54:51.304Z,39
2017-12-16T13:55:51.966Z,33
2017-12-16T13:56:52.628Z,28
2017-12-16T13:57:53.289Z,28
2017-12-16T13:58:53.953Z,22
2017-12-16T13:59:54.646Z,22
2017-12-16T14:00:55.308Z,22
2017-12-16T14:01:55.969Z,28
2017-12-16T14:02:56.630Z,33
2017-12-16T14:03:57.292Z,33
2017-12-16T14:04:57.955Z,33
2017-12-16T14:05:58.618Z,39
2017-12-16T14:06:59.283Z,39
2017-12-16T14:07:59.946Z,33
2017-12-16T14:09:00.610Z,33
2017-12-16T14:10:01.325Z,33
2017-12-16T14:11:02.020Z,39
2017-12-16T14:12:02.685Z,39
2017-12-16T14:13:03.347Z,39
2017-12-16T14:14:04.008Z,39
2017-12-16T14:15:04.671Z,39
2017-12-16T14:16:05.337Z,39
2017-12-16T14:17:05.995Z,33
2017-12-16T14:18:06.658Z,33
2017-12-16T14:19:07.322Z,33
2017-12-16T14:20:07.984Z,33
2017-12-16T14:21:08.645Z,33
2017-12-16T14:22:09.306Z,33
2017-12-16T14:23:09.968Z,28
2017-12-16T14:24:10.631Z,28
2017-12-16T14:25:11.293Z,28
2017-12-16T14:26:11.955Z,33
2017-12-16T14:27:12.625Z,33
2017-12-16T14:28:13.279Z,33
2017-12-16T14:29:13.942Z,33
2017-12-16T14:30:14.604Z,33
2017-12-16T14:31:15.266Z,28
2017-12-16T14:32:15.927Z,28
2017-12-16T14:33:16.590Z,28
2017-12-16T14:34:17.254Z,22
2017-12-16T14:35:17.914Z,22
2017-12-16T14:36:18.575Z,22
2017-12-16T14:37:19.237Z,22
2017-12-16T14:38:19.936Z,16
2017-12-16T14:39:20.596Z,16
2017-12-16T14:40:21.257Z,16
2017-12-16T14:41:21.919Z,16